Louise, Mississippi
Current Conditions -  °F | °C
As of 3:53 AM on Thursday 29 Jan 2015 (Local Time) from KGLH Reporting Station
Overcast Overcast  
Wind Chill: 56°   Ceiling: 10000
Heat Index: 56°   Visibility: 10mi
Dew Point: 41°   Wind: 22mph
Humidity: 57%   Direction: 200°SSW
Pressure: 30.09"   Gusts: NA
Location:  32.98°N, 90.59°W
Report Text: KGLH 290953Z AUTO 20019KT 10SM OVC100 13/05 A3009 RMK AO2 SLP196 T01330050
Loading
Personal Weather Stations






























Interactive Weather Map New forecast layout! Learn more

10-Day Weather Forecast

Advertisements
Track Severe Weather on mobile